Time;durP1;ratioP1;P1;durP2;ratioP2;P2;SDS_P1;SDS_P2;PMS_P1;PMS_P2;Temp;Humidity;BMP_temperature;BMP_pressure;BME280_temperature;BME280_humidity;BME280_pressure;Samples;Min_cycle;Max_cycle;Signal;HPM_P1;HPM_P2
2022/05/02 00:03:35;;;;;;;13.80;6.90;;;;;;;16.86;42.11;99206.77;231827;1217;139448;-64
2022/05/02 00:08:38;;;;;;;10.80;6.90;;;;;;;16.85;42.05;99206.92;231624;1217;138837;-64
2022/05/02 00:13:46;;;;;;;11.60;6.70;;;;;;;16.78;42.25;99203.09;232174;1215;139227;-64
2022/05/02 00:18:57;;;;;;;10.90;7.20;;;;;;;16.76;42.19;99202.05;231823;1217;138443;-63
2022/05/02 00:24:05;;;;;;;11.30;7.20;;;;;;;16.76;42.34;99200.48;232149;1217;138551;-65
2022/05/02 00:29:19;;;;;;;10.50;7.30;;;;;;;16.76;42.50;99202.73;231941;1217;139748;-63
2022/05/02 00:34:30;;;;;;;12.90;7.50;;;;;;;16.75;42.41;99201.95;232233;1217;138373;-63
2022/05/02 00:39:39;;;;;;;10.90;7.10;;;;;;;16.72;42.36;99203.81;231380;1217;138645;-61
2022/05/02 00:44:49;;;;;;;12.50;7.80;;;;;;;16.67;42.36;99200.62;231659;1217;139232;-62
2022/05/02 00:49:57;;;;;;;12.60;7.10;;;;;;;16.68;42.73;99200.94;231789;1217;138900;-62
2022/05/02 00:55:08;;;;;;;12.50;7.50;;;;;;;16.64;42.95;99197.91;231723;1217;139293;-63
2022/05/02 01:00:13;;;;;;;12.20;7.80;;;;;;;16.60;43.01;99197.67;232025;1216;138332;-63
2022/05/02 01:05:17;;;;;;;13.30;8.10;;;;;;;16.57;42.97;99201.14;231737;1217;138816;-62
2022/05/02 01:10:25;;;;;;;12.70;8.30;;;;;;;16.53;43.10;99201.48;231550;1217;138820;-61
2022/05/02 01:15:35;;;;;;;15.90;9.10;;;;;;;16.52;42.99;99198.67;231536;1216;138685;-64
2022/05/02 01:20:46;;;;;;;11.70;8.20;;;;;;;16.50;43.13;99194.95;232347;1217;138744;-63
2022/05/02 01:25:52;;;;;;;11.90;9.10;;;;;;;16.44;42.85;99191.88;231813;1217;138990;-64
2022/05/02 01:31:01;;;;;;;14.20;8.90;;;;;;;16.40;42.70;99187.00;231935;1217;138599;-62
2022/05/02 01:36:09;;;;;;;15.20;8.70;;;;;;;16.31;43.06;99185.59;231837;1217;138999;-63
2022/05/02 01:41:22;;;;;;;13.70;9.60;;;;;;;16.16;43.34;99184.52;231616;1217;139578;-61
2022/05/02 01:46:31;;;;;;;15.70;9.50;;;;;;;16.03;43.29;99180.21;231919;1217;139048;-62
2022/05/02 01:51:41;;;;;;;14.00;8.70;;;;;;;15.91;43.47;99176.52;231797;1217;138540;-63
2022/05/02 01:56:49;;;;;;;11.90;8.60;;;;;;;15.86;43.52;99170.49;232016;1216;138707;-60
2022/05/02 02:01:58;;;;;;;14.50;8.40;;;;;;;15.82;43.28;99169.19;232170;1214;138520;-60
2022/05/02 02:07:06;;;;;;;17.60;9.00;;;;;;;15.80;43.15;99172.41;231960;1216;138326;-60
2022/05/02 02:12:22;;;;;;;12.70;8.30;;;;;;;15.85;43.39;99182.60;232158;1217;138900;-60
2022/05/02 02:17:34;;;;;;;13.30;8.40;;;;;;;15.87;43.25;99183.36;231657;1217;138717;-61
2022/05/02 02:22:42;;;;;;;12.30;8.10;;;;;;;15.87;43.03;99189.43;231716;1217;138715;-63
2022/05/02 02:27:53;;;;;;;14.10;7.90;;;;;;;15.83;43.00;99186.88;232020;1217;138731;-62
2022/05/02 02:33:05;;;;;;;14.30;8.00;;;;;;;15.75;42.81;99185.33;231732;1216;138666;-62
2022/05/02 02:38:12;;;;;;;10.00;7.40;;;;;;;15.74;42.87;99187.81;231941;1217;138884;-65
2022/05/02 02:43:21;;;;;;;10.90;7.70;;;;;;;15.66;42.94;99182.20;231575;1216;138462;-66
2022/05/02 02:48:40;;;;;;;10.90;7.30;;;;;;;15.57;43.29;99179.41;231953;1217;139125;-59
2022/05/02 02:53:52;;;;;;;13.70;8.10;;;;;;;15.51;43.46;99179.05;232314;1217;138311;-60
2022/05/02 02:58:57;;;;;;;14.30;7.60;;;;;;;15.44;43.43;99181.20;231813;1216;138447;-60
2022/05/02 03:06:01;;;;;;;14.70;7.70;;;;;;;15.41;43.59;99178.77;231627;1216;138249;-65
2022/05/02 03:09:31;;;;;;;13.30;7.80;;;;;;;15.33;43.83;99184.36;231738;1217;138720;-62
2022/05/02 03:14:39;;;;;;;17.60;8.90;;;;;;;15.30;43.81;99181.42;231718;1217;139102;-62
2022/05/02 03:19:55;;;;;;;22.80;8.50;;;;;;;15.33;43.95;99188.91;232221;1217;138085;-61
2022/05/02 03:25:04;;;;;;;18.80;8.30;;;;;;;15.31;44.18;99187.21;232164;1216;139314;-63
2022/05/02 03:30:13;;;;;;;19.30;8.00;;;;;;;15.28;44.23;99187.14;231976;1217;138646;-63
2022/05/02 03:35:17;;;;;;;51.70;35.90;;;;;;;15.27;44.66;99185.08;231942;1217;139369;-63
2022/05/02 03:40:23;;;;;;;17.20;8.10;;;;;;;15.35;44.93;99179.77;231718;1217;139136;-66
2022/05/02 03:45:32;;;;;;;15.20;8.20;;;;;;;15.37;44.89;99179.06;232177;1217;139769;-59
2022/05/02 03:50:43;;;;;;;64.60;48.80;;;;;;;15.29;44.92;99184.35;232075;1217;138655;-61
2022/05/02 03:55:53;;;;;;;25.80;9.20;;;;;;;15.33;45.26;99181.15;232054;1217;139509;-63
2022/05/02 04:01:01;;;;;;;14.90;7.90;;;;;;;15.30;45.04;99184.23;231453;1217;138577;-62
2022/05/02 04:06:08;;;;;;;15.20;9.10;;;;;;;15.22;45.04;99184.38;231708;1217;138957;-63
2022/05/02 04:11:13;;;;;;;14.40;8.30;;;;;;;15.18;45.22;99187.55;231858;1216;138653;-62
2022/05/02 04:16:28;;;;;;;13.30;7.60;;;;;;;15.20;45.42;99184.36;231957;1217;138886;-65
2022/05/02 04:21:33;;;;;;;20.30;7.70;;;;;;;15.21;45.38;99190.36;231642;1217;138518;-64
2022/05/02 04:26:43;;;;;;;15.10;7.80;;;;;;;15.19;45.45;99193.05;231841;1217;138707;-65
2022/05/02 04:31:50;;;;;;;15.70;7.80;;;;;;;15.15;45.63;99201.56;231875;1217;138104;-68
2022/05/02 04:36:54;;;;;;;12.30;7.50;;;;;;;15.15;45.57;99202.46;231431;1217;139675;-65
2022/05/02 04:41:59;;;;;;;14.70;6.90;;;;;;;15.19;45.53;99204.31;232551;1216;138706;-71
2022/05/02 04:47:07;;;;;;;12.70;6.90;;;;;;;15.22;45.40;99208.52;231606;1217;138814;-70
2022/05/02 04:52:17;;;;;;;14.40;7.00;;;;;;;15.24;45.40;99204.98;232083;1217;139905;-67
2022/05/02 04:57:24;;;;;;;13.80;6.70;;;;;;;15.26;45.34;99206.58;231886;1217;138515;-61
2022/05/02 05:02:33;;;;;;;12.00;6.80;;;;;;;15.32;45.25;99209.35;231976;1217;138252;-60
2022/05/02 05:07:43;;;;;;;14.40;7.10;;;;;;;15.33;45.20;99209.24;232184;1217;138487;-62
2022/05/02 05:13:11;;;;;;;10.80;6.80;;;;;;;15.31;45.26;99219.80;231940;1216;138783;-62
2022/05/02 05:18:52;;;;;;;13.30;7.50;;;;;;;15.33;45.44;99220.86;232347;1217;138370;-67
2022/05/02 05:24:23;;;;;;;15.30;6.80;;;;;;;15.37;45.57;99217.69;232099;1217;247132;-66
2022/05/02 05:29:52;;;;;;;14.70;7.00;;;;;;;15.39;45.79;99216.34;232263;1217;138510;-67
2022/05/02 05:35:09;;;;;;;11.50;6.10;;;;;;;15.53;45.57;99211.80;232407;1217;138522;-70
2022/05/02 05:40:27;;;;;;;9.30;6.70;;;;;;;15.68;45.11;99204.91;231925;1217;140138;-68
2022/05/02 05:46:01;;;;;;;12.40;6.50;;;;;;;15.84;44.89;99203.78;231832;1217;139216;-67
2022/05/02 05:51:41;;;;;;;11.00;7.20;;;;;;;16.02;44.70;99202.11;232157;1217;138656;-64
2022/05/02 05:57:16;;;;;;;11.60;7.50;;;;;;;16.17;44.20;99196.99;232199;1217;140021;-67
2022/05/02 06:03:08;;;;;;;13.10;7.20;;;;;;;16.33;44.05;99200.10;231854;1216;138115;-66
2022/05/02 06:08:25;;;;;;;11.30;7.40;;;;;;;16.48;43.59;99200.15;231682;1216;138641;-68
2022/05/02 06:13:42;;;;;;;12.90;7.40;;;;;;;16.56;43.47;99197.83;231594;1217;138472;-68
2022/05/02 06:19:02;;;;;;;13.10;8.70;;;;;;;16.66;43.31;99194.28;231989;1215;139275;-70
2022/05/02 06:24:11;;;;;;;13.90;8.10;;;;;;;16.80;43.38;99195.83;231833;1217;138832;-63
2022/05/02 06:29:20;;;;;;;11.10;8.00;;;;;;;16.93;43.31;99198.80;232493;1217;139375;-66
2022/05/02 06:34:40;;;;;;;11.70;8.20;;;;;;;17.06;43.12;99193.95;231811;1217;138928;-67
2022/05/02 06:39:58;;;;;;;15.70;9.20;;;;;;;17.19;43.08;99194.74;232379;1217;138544;-68
2022/05/02 06:45:48;;;;;;;17.80;10.40;;;;;;;17.35;43.06;99196.48;232132;1217;138588;-62
2022/05/02 06:51:04;;;;;;;15.90;11.40;;;;;;;17.54;42.48;99198.39;232436;1217;138565;-62
2022/05/02 06:56:48;;;;;;;16.40;9.90;;;;;;;17.64;42.62;99194.94;232171;1217;138639;-63
2022/05/02 07:02:12;;;;;;;15.40;9.80;;;;;;;17.78;42.45;99191.78;231872;1217;138352;-65
2022/05/02 07:07:38;;;;;;;13.70;10.40;;;;;;;17.89;42.34;99196.52;232021;1217;138733;-66
2022/05/02 07:13:09;;;;;;;18.60;12.30;;;;;;;17.95;42.07;99199.96;231276;1217;139644;-64
2022/05/02 07:19:13;;;;;;;17.30;12.00;;;;;;;18.09;42.25;99198.84;232013;1215;140084;-65
2022/05/02 07:24:41;;;;;;;17.90;13.50;;;;;;;18.25;41.99;99198.09;231798;1217;139278;-63
2022/05/02 07:29:51;;;;;;;19.20;13.80;;;;;;;18.42;41.94;99201.55;231982;1216;138607;-64
2022/05/02 07:34:59;;;;;;;18.50;12.70;;;;;;;18.58;41.87;99200.85;231814;1215;139311;-67
2022/05/02 07:40:19;;;;;;;21.30;13.50;;;;;;;18.70;41.95;99199.23;231661;1217;138387;-65
2022/05/02 07:45:28;;;;;;;19.60;12.80;;;;;;;18.82;41.65;99197.87;232001;1217;138366;-64
2022/05/02 07:50:38;;;;;;;23.00;13.10;;;;;;;18.99;41.60;99189.84;231819;1217;138647;-66
2022/05/02 07:55:49;;;;;;;18.60;12.50;;;;;;;19.24;41.39;99191.27;231876;1217;138854;-65
2022/05/02 08:00:59;;;;;;;14.40;11.00;;;;;;;19.41;41.14;99187.77;232159;1217;138740;-60
2022/05/02 08:06:18;;;;;;;15.00;11.40;;;;;;;19.58;40.90;99182.17;233159;1208;139117;-64
2022/05/02 08:11:43;;;;;;;16.10;10.90;;;;;;;19.71;40.91;99186.19;233291;1217;138752;-63
2022/05/02 08:17:02;;;;;;;15.60;10.10;;;;;;;19.77;40.57;99183.64;233530;1216;138476;-61
2022/05/02 08:27:46;;;;;;;13.80;9.00;;;;;;;19.89;40.12;99184.81;233968;1217;138572;-61
2022/05/02 08:33:01;;;;;;;12.00;8.80;;;;;;;19.97;39.76;99186.87;233954;1217;139141;-63
2022/05/02 08:38:50;;;;;;;11.80;8.30;;;;;;;20.09;39.57;99185.52;233940;1217;138588;-67
2022/05/02 08:44:12;;;;;;;15.20;8.10;;;;;;;20.17;39.10;99176.82;233871;1217;139254;-63
2022/05/02 08:49:39;;;;;;;12.90;8.00;;;;;;;20.29;38.97;99168.94;233768;1217;138692;-63
2022/05/02 08:54:51;;;;;;;13.10;7.70;;;;;;;20.36;38.80;99165.48;233866;1216;138715;-64
2022/05/02 09:00:16;;;;;;;24.30;18.30;;;;;;;20.48;38.96;99163.23;233219;1217;139363;-63
2022/05/02 09:05:40;;;;;;;12.70;10.50;;;;;;;20.77;39.21;99164.73;233418;1217;139027;-63
2022/05/02 09:11:31;;;;;;;14.00;10.30;;;;;;;20.99;39.14;99156.91;233242;1218;139174;-63
2022/05/02 09:16:53;;;;;;;10.50;8.60;;;;;;;21.23;39.05;99152.11;233036;1219;139342;-64
2022/05/02 09:22:33;;;;;;;9.70;7.10;;;;;;;21.38;38.62;99149.95;233004;1218;139297;-64
2022/05/02 09:28:15;;;;;;;9.90;7.70;;;;;;;21.43;38.35;99144.02;233247;1219;138410;-63
2022/05/02 09:33:47;;;;;;;11.80;7.30;;;;;;;21.56;38.15;99139.78;233168;1217;140189;-63
2022/05/02 09:38:59;;;;;;;8.90;7.10;;;;;;;21.76;37.73;99134.58;233182;1219;139513;-63
2022/05/02 09:50:07;;;;;;;10.80;9.30;;;;;;;22.06;36.97;99121.75;233274;1217;139647;-63
2022/05/02 10:01:22;;;;;;;7.60;6.70;;;;;;;22.29;36.63;99114.02;233173;1219;138936;-63
2022/05/02 10:06:41;;;;;;;13.10;6.20;;;;;;;22.44;36.13;99112.03;233146;1217;138453;-62
2022/05/02 10:11:53;;;;;;;10.80;7.00;;;;;;;22.58;35.42;99105.65;233302;1217;138798;-62
2022/05/02 10:17:07;;;;;;;9.50;5.70;;;;;;;22.68;35.03;99089.48;232949;1217;138955;-63
2022/05/02 10:22:34;;;;;;;8.70;6.10;;;;;;;22.80;34.76;99081.20;233381;1217;138678;-63
2022/05/02 10:27:50;;;;;;;8.50;5.90;;;;;;;22.93;34.34;99070.56;233269;1217;138442;-63
2022/05/02 10:33:13;;;;;;;7.60;5.20;;;;;;;22.96;34.13;99067.73;233361;1217;138767;-63
2022/05/02 10:38:27;;;;;;;9.20;5.50;;;;;;;22.97;33.89;99059.52;233383;1217;138488;-64
2022/05/02 10:43:35;;;;;;;16.80;9.50;;;;;;;22.78;33.76;99055.57;233377;1217;138683;-64
2022/05/02 10:48:51;;;;;;;10.40;6.00;;;;;;;22.73;33.59;99054.70;233353;1217;138963;-64
2022/05/02 10:54:05;;;;;;;8.70;5.10;;;;;;;22.86;33.40;99047.14;233420;1214;138353;-64
2022/05/02 10:59:11;;;;;;;6.50;4.70;;;;;;;23.01;33.10;99046.30;233324;1217;138589;-64
2022/05/02 11:04:41;;;;;;;9.40;5.10;;;;;;;23.17;32.88;99035.47;233306;1217;138554;-64
2022/05/02 11:10:05;;;;;;;6.00;4.90;;;;;;;23.45;32.52;99037.81;232980;1217;139041;-64
2022/05/02 11:15:13;;;;;;;6.90;4.90;;;;;;;23.64;32.23;99029.49;233355;1217;138949;-64
2022/05/02 11:20:47;;;;;;;5.80;4.80;;;;;;;23.91;31.98;99032.13;233473;1217;138691;-64
2022/05/02 11:26:32;;;;;;;6.20;4.60;;;;;;;24.19;31.64;99029.02;233320;1217;138538;-63
2022/05/02 11:31:53;;;;;;;5.80;4.70;;;;;;;24.31;31.26;99020.89;233256;1217;138768;-63
2022/05/02 11:36:58;;;;;;;10.60;5.80;;;;;;;24.60;31.01;99019.56;233390;1217;139435;-58
2022/05/02 11:42:14;;;;;;;7.70;4.80;;;;;;;24.87;30.84;99013.64;233389;1217;138932;-63
2022/05/02 11:47:33;;;;;;;9.40;4.90;;;;;;;25.10;30.46;99013.84;232847;1220;139516;-63
2022/05/02 11:52:38;;;;;;;6.30;4.60;;;;;;;25.28;29.93;99003.05;233159;1217;140080;-63
2022/05/02 11:57:53;;;;;;;7.40;4.40;;;;;;;25.45;29.84;98999.71;232895;1217;140028;-63
2022/05/02 12:03:15;;;;;;;4.80;4.20;;;;;;;25.48;29.46;98992.42;233529;1217;139324;-62
2022/05/02 12:08:25;;;;;;;5.90;4.50;;;;;;;25.56;29.44;98988.65;233378;1217;139446;-62
2022/05/02 12:13:46;;;;;;;6.00;4.00;;;;;;;25.55;29.17;98985.16;233211;1217;138632;-63
2022/05/02 12:18:55;;;;;;;5.70;4.20;;;;;;;25.36;28.89;98984.45;232877;1217;138610;-62
2022/05/02 12:24:03;;;;;;;5.80;4.00;;;;;;;25.37;28.98;98976.60;233303;1217;139020;-62
2022/05/02 12:29:15;;;;;;;8.50;4.90;;;;;;;25.44;28.87;98968.94;233121;1217;138697;-61
2022/05/02 12:34:20;;;;;;;7.70;4.20;;;;;;;25.56;28.21;98960.65;233375;1217;139428;-62
2022/05/02 12:39:26;;;;;;;6.30;4.40;;;;;;;25.75;28.52;98954.91;233339;1217;138947;-64
2022/05/02 12:45:03;;;;;;;8.00;4.20;;;;;;;25.77;28.37;98950.65;233548;1217;138807;-62
2022/05/02 12:50:11;;;;;;;4.30;3.90;;;;;;;26.06;28.21;98943.05;233332;1217;138201;-63
2022/05/02 12:55:15;;;;;;;6.70;4.50;;;;;;;26.31;28.14;98939.35;233353;1217;138764;-62
2022/05/02 13:00:31;;;;;;;8.90;3.70;;;;;;;26.56;27.86;98933.20;233329;1217;138717;-62
2022/05/02 13:05:35;;;;;;;5.80;4.30;;;;;;;26.44;27.14;98930.02;233304;1217;138758;-63
2022/05/02 13:10:40;;;;;;;5.90;4.30;;;;;;;26.14;27.26;98931.91;233397;1217;140428;-62
2022/05/02 13:15:52;;;;;;;5.20;4.10;;;;;;;25.71;27.01;98928.98;233318;1217;138475;-63
2022/05/02 13:21:00;;;;;;;5.20;4.10;;;;;;;25.27;27.14;98928.88;233461;1217;138771;-63
2022/05/02 13:26:12;;;;;;;11.40;4.60;;;;;;;25.00;27.26;98922.83;233026;1217;138721;-62
2022/05/02 13:31:32;;;;;;;9.10;3.70;;;;;;;24.97;27.50;98919.23;233220;1217;139498;-61
2022/05/02 13:36:43;;;;;;;6.00;4.10;;;;;;;24.81;27.47;98916.39;233299;1217;138940;-62
2022/05/02 13:41:59;;;;;;;8.00;3.90;;;;;;;24.76;27.52;98919.38;233392;1217;138670;-61
2022/05/02 13:47:09;;;;;;;5.00;4.20;;;;;;;24.66;27.40;98918.83;233455;1217;139598;-62
2022/05/02 13:52:15;;;;;;;7.00;4.30;;;;;;;24.57;26.94;98918.37;233268;1217;139399;-61
2022/05/02 13:57:28;;;;;;;8.00;4.80;;;;;;;24.43;27.13;98907.23;233428;1217;138797;-61
2022/05/02 14:03:17;;;;;;;9.70;6.70;;;;;;;24.24;27.45;98907.45;233210;1215;139125;-61
2022/05/02 14:08:33;;;;;;;7.30;5.30;;;;;;;24.18;27.68;98903.05;233297;1217;141199;-61
2022/05/02 14:13:36;;;;;;;9.50;4.20;;;;;;;24.24;27.51;98907.14;233156;1217;138983;-61
2022/05/02 14:18:53;;;;;;;6.80;4.00;;;;;;;24.39;27.81;98902.42;233600;1217;139221;-61
2022/05/02 14:23:58;;;;;;;6.20;3.60;;;;;;;24.74;27.84;98894.34;233800;1217;138429;-61
2022/05/02 14:29:01;;;;;;;6.20;3.20;;;;;;;24.94;27.69;98886.56;233772;1217;138583;-63
2022/05/02 14:34:08;;;;;;;3.10;2.80;;;;;;;25.03;27.41;98889.42;233606;1217;138464;-61
2022/05/02 14:39:12;;;;;;;8.20;3.30;;;;;;;25.00;27.08;98884.50;233178;1217;140078;-64
2022/05/02 14:44:16;;;;;;;6.50;3.00;;;;;;;24.99;27.10;98880.33;232096;1217;138973;-59
2022/05/02 14:49:19;;;;;;;5.50;3.00;;;;;;;24.93;26.92;98874.49;233357;1217;138937;-61
2022/05/02 14:54:27;;;;;;;7.60;3.10;;;;;;;24.81;26.87;98868.40;233681;1217;138896;-60
2022/05/02 14:59:34;;;;;;;6.30;2.90;;;;;;;24.46;26.60;98867.13;233817;1217;138795;-62
2022/05/02 15:04:39;;;;;;;7.60;4.00;;;;;;;24.11;26.56;98866.03;233579;1217;138941;-62
2022/05/02 15:15:21;;;;;;;6.10;3.00;;;;;;;23.88;26.78;98873.20;233420;1219;138153;-62
2022/05/02 15:20:30;;;;;;;5.80;3.30;;;;;;;23.72;26.78;98874.02;232163;1217;138599;-61
2022/05/02 15:25:34;;;;;;;5.50;3.40;;;;;;;23.54;26.87;98867.88;233083;1219;140094;-61
2022/05/02 15:41:39;;;;;;;3.70;3.10;;;;;;;23.23;27.15;98864.81;233797;1217;138748;-61
2022/05/02 15:46:44;;;;;;;4.80;3.10;;;;;;;23.19;27.39;98859.61;233768;1217;138969;-61
2022/05/02 15:51:59;;;;;;;8.70;3.20;;;;;;;23.23;27.43;98857.37;233137;1219;138758;-60
2022/05/02 15:57:11;;;;;;;7.10;3.20;;;;;;;23.30;27.56;98844.55;233837;1219;138450;-60
2022/05/02 16:02:22;;;;;;;4.00;3.10;;;;;;;23.43;27.45;98847.58;233179;1217;139400;-61
2022/05/02 16:13:00;;;;;;;7.10;3.70;;;;;;;23.73;27.39;98845.11;233439;1220;139316;-59
2022/05/02 16:18:04;;;;;;;4.70;3.10;;;;;;;24.00;27.25;98839.34;232860;1219;159690;-61
2022/05/02 16:23:13;;;;;;;6.00;3.00;;;;;;;23.99;27.02;98836.95;232643;1219;138847;-60
2022/05/02 16:28:21;;;;;;;6.30;3.40;;;;;;;23.82;26.87;98840.23;233713;1219;139063;-61
2022/05/02 16:33:28;;;;;;;6.60;3.60;;;;;;;23.64;27.00;98842.75;233852;1219;139492;-60
2022/05/02 16:38:36;;;;;;;83.90;67.10;;;;;;;23.46;27.08;98835.50;233657;1217;138736;-60
2022/05/02 16:43:45;;;;;;;7.80;5.70;;;;;;;23.31;27.23;98839.15;233694;1218;139592;-61
2022/05/02 16:49:01;;;;;;;6.00;4.00;;;;;;;23.22;27.42;98841.77;233664;1217;138461;-61
2022/05/02 16:54:05;;;;;;;6.20;4.60;;;;;;;23.11;27.55;98838.11;233285;1219;138238;-60
2022/05/02 16:59:08;;;;;;;7.00;4.10;;;;;;;23.03;27.56;98838.74;233635;1219;138825;-61
2022/05/02 17:04:11;;;;;;;6.40;4.10;;;;;;;22.95;27.63;98837.42;233336;1219;139454;-61
2022/05/02 17:09:16;;;;;;;6.30;4.10;;;;;;;22.86;27.91;98840.13;233502;1215;138634;-60
2022/05/02 17:14:20;;;;;;;4.80;4.20;;;;;;;22.77;27.98;98840.50;233872;1217;139288;-61
2022/05/02 17:19:25;;;;;;;4.80;3.20;;;;;;;22.70;28.08;98838.27;233724;1217;138381;-60
2022/05/02 17:24:48;;;;;;;;;;;;;;;22.61;28.28;98841.26;233649;1217;138548;-61
2022/05/02 17:29:55;;;;;;;12.30;3.80;;;;;;;22.51;28.30;98846.18;233530;1219;124819;-61
2022/05/02 17:35:01;;;;;;;5.50;4.00;;;;;;;22.40;28.49;98847.38;233442;1218;139121;-61
2022/05/02 17:40:18;;;;;;;10.70;4.50;;;;;;;22.28;28.52;98846.95;233446;1217;138546;-61
2022/05/02 17:45:27;;;;;;;8.00;4.30;;;;;;;22.17;28.63;98848.77;233431;1217;141690;-61
2022/05/02 17:50:30;;;;;;;46.20;34.80;;;;;;;22.08;28.87;98849.45;233212;1217;138480;-61
2022/05/02 17:55:34;;;;;;;9.90;5.60;;;;;;;21.98;28.68;98854.11;233057;1217;139567;-61
2022/05/02 18:00:40;;;;;;;8.10;6.00;;;;;;;21.81;28.95;98858.08;233348;1217;138676;-61
2022/05/02 18:05:49;;;;;;;14.90;5.80;;;;;;;21.65;29.18;98858.88;233422;1217;138694;-60
2022/05/02 18:11:04;;;;;;;14.90;6.80;;;;;;;21.49;29.37;98861.23;233204;1217;139169;-60
2022/05/02 18:16:27;;;;;;;9.40;6.60;;;;;;;21.35;29.73;98866.23;233382;1217;138985;-60
2022/05/02 18:21:39;;;;;;;12.50;7.90;;;;;;;21.17;30.02;98862.41;233353;1217;138713;-60
2022/05/02 18:27:02;;;;;;;11.60;7.30;;;;;;;21.02;30.33;98866.17;233344;1217;138973;-60
2022/05/02 18:32:21;;;;;;;90.20;66.50;;;;;;;20.90;30.51;98868.77;233114;1217;138997;-62
2022/05/02 18:37:27;;;;;;;32.60;22.10;;;;;;;20.83;30.83;98872.21;233264;1217;139516;-63
2022/05/02 18:42:34;;;;;;;13.90;7.90;;;;;;;20.71;31.04;98870.39;233288;1217;139292;-62
2022/05/02 18:53:13;;;;;;;385.60;308.50;;;;;;;20.47;31.52;98880.45;233210;1217;139352;-62
2022/05/02 18:58:17;;;;;;;39.30;27.70;;;;;;;20.37;31.65;98888.97;233284;1217;139650;-61
2022/05/02 19:03:23;;;;;;;15.20;9.40;;;;;;;20.27;31.96;98888.91;232636;1217;139372;-65
2022/05/02 19:08:29;;;;;;;149.20;127.30;;;;;;;20.15;32.16;98890.03;233454;1217;138887;-64
2022/05/02 19:13:42;;;;;;;17.20;10.50;;;;;;;20.09;32.50;98891.31;233122;1217;139336;-61
2022/05/02 19:18:48;;;;;;;25.80;10.30;;;;;;;20.00;32.84;98891.52;233182;1219;138914;-61
2022/05/02 19:24:29;;;;;;;18.80;8.90;;;;;;;19.89;33.21;98893.98;233263;1219;139092;-60
2022/05/02 19:29:34;;;;;;;16.90;8.20;;;;;;;19.71;33.16;98899.77;233369;1217;140193;-61
2022/05/02 19:40:19;;;;;;;64.20;46.80;;;;;;;19.54;33.75;98906.43;233378;1217;139029;-60
2022/05/02 19:45:25;;;;;;;31.70;22.90;;;;;;;19.54;34.00;98903.05;233460;1217;139817;-64
2022/05/02 19:50:29;;;;;;;21.10;9.80;;;;;;;19.57;34.36;98910.37;233366;1217;139207;-64
2022/05/02 19:55:33;;;;;;;23.70;9.90;;;;;;;19.49;34.19;98912.20;233276;1216;138805;-64
2022/05/02 20:00:40;;;;;;;21.60;9.20;;;;;;;19.39;34.60;98910.38;233199;1217;139135;-64
2022/05/02 20:05:43;;;;;;;20.90;8.90;;;;;;;19.30;34.69;98913.98;233187;1217;138669;-65
2022/05/02 20:10:48;;;;;;;17.10;9.10;;;;;;;19.23;35.26;98914.84;233154;1217;139667;-63
2022/05/02 20:15:54;;;;;;;23.00;9.40;;;;;;;19.19;35.27;98908.39;233339;1217;138404;-64
2022/05/02 20:20:57;;;;;;;25.30;9.70;;;;;;;19.14;35.59;98905.80;233352;1217;139129;-64
2022/05/02 20:26:01;;;;;;;23.70;9.20;;;;;;;19.07;35.75;98903.45;233383;1217;139876;-62
2022/05/02 20:31:04;;;;;;;27.00;9.20;;;;;;;19.04;36.18;98910.66;233394;1217;138629;-61
2022/05/02 20:36:38;;;;;;;18.20;8.40;;;;;;;18.96;36.29;98909.43;233346;1217;138349;-60
2022/05/02 20:41:44;;;;;;;23.10;14.10;;;;;;;18.89;36.68;98908.32;233379;1217;140175;-64
2022/05/02 20:46:57;;;;;;;20.80;9.20;;;;;;;18.86;37.14;98903.00;233463;1217;139324;-61
2022/05/02 20:52:00;;;;;;;20.30;9.50;;;;;;;18.78;37.48;98904.20;233255;1217;139149;-64
2022/05/02 20:57:05;;;;;;;26.30;11.60;;;;;;;18.66;37.72;98901.40;233418;1217;140928;-64
2022/05/02 21:02:08;;;;;;;29.80;12.50;;;;;;;18.54;38.03;98899.80;233318;1216;138816;-64
2022/05/02 21:07:12;;;;;;;20.50;13.10;;;;;;;18.44;38.10;98899.75;233315;1217;139902;-63
2022/05/02 21:12:40;;;;;;;22.10;12.30;;;;;;;18.30;38.17;98897.30;233289;1217;141966;-63
2022/05/02 21:17:56;;;;;;;49.10;35.30;;;;;;;18.16;38.84;98890.04;233355;1217;138579;-62
2022/05/02 21:23:24;;;;;;;28.30;14.80;;;;;;;18.15;39.61;98884.41;233303;1217;138884;-61
2022/05/02 21:28:49;;;;;;;31.70;13.90;;;;;;;18.10;39.59;98876.39;233174;1219;139514;-61
2022/05/02 21:34:01;;;;;;;30.30;14.30;;;;;;;18.04;39.70;98877.75;233287;1217;138582;-61
2022/05/02 21:39:08;;;;;;;24.20;15.00;;;;;;;17.98;40.02;98876.17;233435;1217;139497;-62
2022/05/02 21:44:11;;;;;;;21.80;14.70;;;;;;;17.96;40.32;98882.15;233267;1217;139038;-61
2022/05/02 21:49:14;;;;;;;20.60;14.90;;;;;;;17.91;39.91;98879.71;233305;1217;139211;-62
2022/05/02 21:54:17;;;;;;;22.70;14.90;;;;;;;17.87;39.97;98878.83;233334;1217;139641;-60
2022/05/02 21:59:20;;;;;;;27.80;16.20;;;;;;;17.81;40.23;98872.25;233268;1217;138859;-61
2022/05/02 22:04:24;;;;;;;21.70;15.40;;;;;;;17.78;40.32;98873.27;233389;1217;139148;-61
2022/05/02 22:09:28;;;;;;;26.30;16.90;;;;;;;17.69;40.43;98874.91;232866;1219;138764;-62
2022/05/02 22:14:32;;;;;;;26.40;16.50;;;;;;;17.61;40.79;98873.89;233131;1219;138931;-63
2022/05/02 22:19:35;;;;;;;24.80;16.00;;;;;;;17.52;40.61;98875.08;233190;1219;138849;-61
2022/05/02 22:24:38;;;;;;;23.60;16.40;;;;;;;17.41;41.11;98881.10;233349;1217;138938;-62
2022/05/02 22:29:41;;;;;;;28.10;17.90;;;;;;;17.28;41.08;98872.63;233150;1217;138948;-60
2022/05/02 22:34:44;;;;;;;23.70;16.50;;;;;;;17.24;41.22;98871.10;233230;1217;141474;-60
2022/05/02 22:39:47;;;;;;;25.90;16.40;;;;;;;17.18;41.74;98870.39;233474;1219;139755;-63
2022/05/02 22:44:51;;;;;;;29.10;16.80;;;;;;;17.12;41.95;98877.95;232967;1219;139152;-60
2022/05/02 22:49:55;;;;;;;21.90;15.10;;;;;;;17.04;41.67;98874.85;232970;1220;139042;-60
2022/05/02 22:54:58;;;;;;;26.00;16.50;;;;;;;17.01;42.28;98870.15;233154;1218;138956;-60
2022/05/02 23:00:06;;;;;;;21.50;14.20;;;;;;;16.93;42.44;98869.58;233036;1219;139165;-61
2022/05/02 23:05:35;;;;;;;23.70;14.40;;;;;;;16.86;42.43;98876.02;233362;1217;138875;-59
2022/05/02 23:10:39;;;;;;;29.30;15.40;;;;;;;16.83;42.46;98871.77;233056;1217;139675;-60
2022/05/02 23:15:43;;;;;;;27.80;15.80;;;;;;;16.82;42.47;98864.19;233205;1219;139414;-63
2022/05/02 23:20:48;;;;;;;25.40;15.80;;;;;;;16.86;42.17;98860.55;233197;1218;139480;-65
2022/05/02 23:25:53;;;;;;;25.70;16.80;;;;;;;16.90;42.19;98853.76;232987;1217;138948;-61
2022/05/02 23:31:02;;;;;;;25.10;16.60;;;;;;;16.82;42.17;98848.67;233416;1217;139443;-63
2022/05/02 23:36:18;;;;;;;25.90;16.60;;;;;;;16.73;42.62;98853.61;233320;1215;138750;-62
2022/05/02 23:41:25;;;;;;;;;;;;;;;16.62;42.47;98850.48;233294;1217;138928;-62
2022/05/02 23:46:47;;;;;;;22.40;15.70;;;;;;;16.51;42.85;98856.16;233409;1217;125204;-63
2022/05/02 23:52:03;;;;;;;24.00;14.20;;;;;;;16.36;42.87;98849.39;233338;1217;139555;-61
2022/05/02 23:57:24;;;;;;;25.20;15.30;;;;;;;16.25;42.74;98850.63;233343;1217;141428;-63
